createdAt,value
2019-03-11T00:00:00.887Z,98.20
2019-03-11T00:00:41.171Z,98.20
2019-03-11T00:01:18.623Z,98.20
2019-03-11T00:01:54.239Z,98.20
2019-03-11T00:02:29.834Z,98.30
2019-03-11T00:03:05.491Z,98.30
2019-03-11T00:03:41.150Z,98.10
2019-03-11T00:04:17.398Z,98.00
2019-03-11T00:04:53.860Z,97.80
2019-03-11T00:05:29.529Z,97.80
2019-03-11T00:06:05.120Z,97.80
2019-03-11T00:06:40.670Z,97.80
2019-03-11T00:07:16.243Z,97.80
2019-03-11T00:07:51.830Z,97.80
2019-03-11T00:08:27.559Z,97.80
2019-03-11T00:09:04.193Z,98.00
2019-03-11T00:09:41.450Z,97.90
2019-03-11T00:10:17.007Z,97.90
2019-03-11T00:10:52.578Z,97.80
2019-03-11T00:11:28.239Z,97.60
2019-03-11T00:12:03.861Z,97.60
2019-03-11T00:12:40.085Z,97.30
2019-03-11T00:13:15.943Z,97.30
2019-03-11T00:13:51.554Z,97.40
2019-03-11T00:14:27.107Z,97.40
2019-03-11T00:15:03.123Z,97.40
2019-03-11T00:15:38.737Z,97.40
2019-03-11T00:16:14.612Z,97.40
2019-03-11T00:16:50.182Z,97.40
2019-03-11T00:17:25.839Z,97.40
2019-03-11T00:18:01.414Z,97.40
2019-03-11T00:18:37.067Z,97.20
2019-03-11T00:19:12.654Z,97.20
2019-03-11T00:19:48.207Z,97.00
2019-03-11T00:20:23.867Z,97.00
2019-03-11T00:20:59.422Z,96.70
2019-03-11T00:21:34.987Z,96.50
2019-03-11T00:22:10.570Z,96.50
2019-03-11T00:22:46.242Z,96.60
2019-03-11T00:23:22.129Z,96.60
2019-03-11T00:23:58.129Z,96.40
2019-03-11T00:24:33.731Z,96.40
2019-03-11T00:25:09.651Z,96.20
2019-03-11T00:25:45.202Z,96.20
2019-03-11T00:26:20.798Z,96.30
2019-03-11T00:26:56.467Z,96.30
2019-03-11T00:27:32.018Z,96.70
2019-03-11T00:28:08.902Z,96.00
2019-03-11T00:28:47.469Z,95.90
2019-03-11T00:29:24.648Z,95.90
2019-03-11T00:30:01.663Z,96.00
2019-03-11T00:30:40.786Z,96.10
2019-03-11T00:31:19.138Z,96.00
2019-03-11T00:31:56.481Z,96.00
2019-03-11T00:32:32.739Z,95.90
2019-03-11T00:33:08.395Z,95.80
2019-03-11T00:33:43.930Z,95.80
2019-03-11T00:34:19.735Z,95.90
2019-03-11T00:34:55.319Z,95.90
2019-03-11T00:35:31.139Z,95.90
2019-03-11T00:36:06.723Z,95.80
2019-03-11T00:36:42.310Z,95.60
2019-03-11T00:37:17.847Z,95.50
2019-03-11T00:37:53.379Z,95.30
2019-03-11T00:38:29.018Z,95.00
2019-03-11T00:39:05.890Z,94.80
2019-03-11T00:39:41.984Z,94.90
2019-03-11T00:40:17.606Z,95.00
2019-03-11T00:40:53.178Z,95.10
2019-03-11T00:41:28.733Z,94.90
2019-03-11T00:42:04.368Z,94.90
2019-03-11T00:42:39.919Z,94.60
2019-03-11T00:43:15.827Z,94.60
2019-03-11T00:43:51.382Z,94.50
2019-03-11T00:44:26.934Z,94.60
2019-03-11T00:45:02.532Z,94.30
2019-03-11T00:45:38.109Z,94.40
2019-03-11T00:46:14.051Z,94.30
2019-03-11T00:46:49.956Z,94.30
2019-03-11T00:47:25.522Z,94.00
2019-03-11T00:48:02.561Z,94.10
2019-03-11T00:48:38.682Z,94.20
2019-03-11T00:49:17.946Z,94.30
2019-03-11T00:49:53.559Z,94.10
2019-03-11T00:50:29.220Z,94.30
2019-03-11T00:51:06.227Z,94.30
2019-03-11T00:51:42.030Z,94.10
2019-03-11T00:52:17.700Z,94.00
2019-03-11T00:52:53.658Z,94.00
2019-03-11T00:53:29.213Z,94.10
2019-03-11T00:54:04.774Z,94.00
2019-03-11T00:54:40.326Z,93.70
2019-03-11T00:55:15.870Z,93.80
2019-03-11T00:55:51.835Z,93.90
2019-03-11T00:56:27.411Z,94.00
2019-03-11T00:57:02.966Z,94.10
2019-03-11T00:57:38.490Z,94.10
2019-03-11T00:58:14.363Z,94.20
2019-03-11T00:58:49.930Z,94.30
2019-03-11T00:59:25.473Z,94.30
2019-03-11T01:00:01.011Z,94.40
2019-03-11T01:00:36.795Z,94.40
2019-03-11T01:01:12.360Z,94.40
2019-03-11T01:01:47.899Z,94.60
2019-03-11T01:02:23.461Z,94.70
2019-03-11T01:02:59.001Z,94.80
2019-03-11T01:03:34.574Z,94.90
2019-03-11T01:04:10.120Z,95.00
2019-03-11T01:04:45.663Z,95.10
2019-03-11T01:05:21.222Z,95.20
2019-03-11T01:05:56.760Z,95.30
2019-03-11T01:06:32.388Z,95.30
2019-03-11T01:07:07.941Z,95.40
2019-03-11T01:07:43.832Z,95.50
2019-03-11T01:08:19.494Z,95.60
2019-03-11T01:08:55.295Z,95.50
2019-03-11T01:09:31.031Z,95.60
2019-03-11T01:10:07.208Z,95.60
2019-03-11T01:10:42.801Z,95.70
2019-03-11T01:11:18.351Z,95.70
2019-03-11T01:11:54.162Z,95.60
2019-03-11T01:12:29.983Z,95.60
2019-03-11T01:13:05.590Z,95.60
2019-03-11T01:13:41.150Z,95.60
2019-03-11T01:14:16.716Z,95.60
2019-03-11T01:14:52.269Z,95.60
2019-03-11T01:15:27.815Z,95.60
2019-03-11T01:16:03.371Z,95.60
2019-03-11T01:16:38.903Z,95.60
2019-03-11T01:17:14.486Z,95.60
2019-03-11T01:17:50.064Z,95.60
2019-03-11T01:18:26.672Z,95.60
2019-03-11T01:19:02.239Z,95.60
2019-03-11T01:19:37.806Z,95.60
2019-03-11T01:20:13.438Z,95.70
2019-03-11T01:20:49.002Z,95.70
2019-03-11T01:21:24.894Z,95.70
2019-03-11T01:22:00.733Z,95.70
2019-03-11T01:22:36.262Z,95.70
2019-03-11T01:23:11.791Z,95.80
2019-03-11T01:23:47.355Z,95.80
2019-03-11T01:24:23.535Z,95.80
2019-03-11T01:25:00.164Z,95.90
2019-03-11T01:25:35.902Z,95.90
2019-03-11T01:26:11.452Z,95.80
2019-03-11T01:26:47.066Z,95.90
2019-03-11T01:27:22.617Z,95.70
2019-03-11T01:27:58.146Z,95.60
2019-03-11T01:28:33.690Z,95.60
2019-03-11T01:29:10.004Z,95.70
2019-03-11T01:29:45.803Z,95.60
2019-03-11T01:30:21.348Z,95.50
2019-03-11T01:30:56.903Z,95.60
2019-03-11T01:31:34.015Z,95.60
2019-03-11T01:32:09.646Z,95.60
2019-03-11T01:32:45.190Z,95.50
2019-03-11T01:33:20.736Z,95.60
2019-03-11T01:33:57.348Z,95.50
2019-03-11T01:34:32.892Z,95.50
2019-03-11T01:35:08.796Z,95.50
2019-03-11T01:35:44.658Z,95.50
2019-03-11T01:36:20.282Z,95.60
2019-03-11T01:36:56.111Z,95.60
2019-03-11T01:37:31.654Z,95.60
2019-03-11T01:38:07.938Z,95.80
2019-03-11T01:38:43.503Z,95.80
2019-03-11T01:39:19.128Z,95.80
2019-03-11T01:39:54.739Z,95.90
2019-03-11T01:40:30.299Z,96.00
2019-03-11T01:41:05.990Z,96.00
2019-03-11T01:41:41.526Z,96.10
2019-03-11T01:42:17.379Z,96.10
2019-03-11T01:42:53.302Z,96.10
2019-03-11T01:43:29.094Z,96.10
2019-03-11T01:44:04.630Z,96.10
2019-03-11T01:44:40.227Z,96.10
2019-03-11T01:45:16.154Z,96.10
2019-03-11T01:45:51.718Z,96.10
2019-03-11T01:46:27.277Z,96.10
2019-03-11T01:47:03.243Z,96.10
2019-03-11T01:47:38.814Z,95.90
2019-03-11T01:48:14.360Z,95.80
2019-03-11T01:48:49.907Z,95.90
2019-03-11T01:49:25.736Z,95.90
2019-03-11T01:50:01.296Z,95.90
2019-03-11T01:50:36.839Z,96.00
2019-03-11T01:51:12.711Z,96.00
2019-03-11T01:51:48.269Z,96.00
2019-03-11T01:52:24.119Z,96.00
2019-03-11T01:52:59.678Z,96.00
2019-03-11T01:53:35.220Z,96.00
2019-03-11T01:54:10.759Z,96.10
2019-03-11T01:54:46.311Z,96.10
2019-03-11T01:55:21.886Z,96.10
2019-03-11T01:55:57.419Z,96.10
2019-03-11T01:56:32.969Z,96.10
2019-03-11T01:57:09.475Z,96.10
2019-03-11T01:57:45.018Z,96.10
2019-03-11T01:58:20.579Z,96.00
2019-03-11T01:58:56.370Z,96.00
2019-03-11T01:59:32.206Z,96.10
2019-03-11T02:00:10.042Z,96.10
2019-03-11T02:00:45.659Z,96.40
2019-03-11T02:01:21.214Z,96.10
2019-03-11T02:01:57.102Z,96.10
2019-03-11T02:02:32.646Z,96.10
2019-03-11T02:03:08.211Z,96.50
2019-03-11T02:03:44.008Z,96.10
2019-03-11T02:04:19.551Z,96.10
2019-03-11T02:04:55.101Z,96.10
2019-03-11T02:05:30.931Z,96.10
2019-03-11T02:06:06.486Z,96.10
2019-03-11T02:06:42.039Z,96.20
2019-03-11T02:07:17.598Z,96.10
2019-03-11T02:07:53.135Z,96.00
2019-03-11T02:08:28.712Z,96.00
2019-03-11T02:09:04.682Z,96.10
2019-03-11T02:09:41.996Z,96.20
2019-03-11T02:10:17.563Z,95.90
2019-03-11T02:10:53.139Z,96.00
2019-03-11T02:11:28.666Z,96.00
2019-03-11T02:12:04.198Z,96.00
2019-03-11T02:12:39.753Z,96.00
2019-03-11T02:13:15.295Z,96.00
2019-03-11T02:13:51.106Z,96.00
2019-03-11T02:14:26.674Z,96.00
2019-03-11T02:15:02.483Z,96.00
2019-03-11T02:15:38.034Z,96.30
2019-03-11T02:16:13.598Z,96.00
2019-03-11T02:16:49.130Z,96.00
2019-03-11T02:17:24.683Z,96.00
2019-03-11T02:18:00.539Z,96.30
2019-03-11T02:18:36.347Z,96.00
2019-03-11T02:19:11.938Z,96.00
2019-03-11T02:19:47.858Z,96.00
2019-03-11T02:20:23.402Z,96.00
2019-03-11T02:20:58.930Z,96.00
2019-03-11T02:21:34.483Z,96.00
2019-03-11T02:22:10.029Z,96.00
2019-03-11T02:22:45.899Z,96.00
2019-03-11T02:23:21.465Z,96.00
2019-03-11T02:23:57.358Z,96.10
2019-03-11T02:24:32.947Z,96.10
2019-03-11T02:25:08.683Z,96.10
2019-03-11T02:25:44.301Z,96.10
2019-03-11T02:26:19.850Z,96.00
2019-03-11T02:26:55.410Z,95.80
2019-03-11T02:27:30.959Z,95.70
2019-03-11T02:28:06.933Z,95.80
2019-03-11T02:28:42.766Z,95.60
2019-03-11T02:29:18.325Z,95.70
2019-03-11T02:29:53.911Z,95.70
2019-03-11T02:30:29.787Z,95.70
2019-03-11T02:31:05.367Z,95.60
2019-03-11T02:31:40.940Z,95.60
2019-03-11T02:32:16.487Z,95.60
2019-03-11T02:32:52.014Z,95.70
2019-03-11T02:33:28.878Z,95.50
2019-03-11T02:34:06.016Z,95.50
2019-03-11T02:34:41.564Z,95.50
2019-03-11T02:35:26.807Z,95.50
2019-03-11T02:36:02.376Z,95.50
2019-03-11T02:36:37.914Z,95.50
2019-03-11T02:37:13.460Z,95.60
2019-03-11T02:37:49.308Z,95.50
2019-03-11T02:38:24.847Z,95.60
2019-03-11T02:39:00.474Z,95.60
2019-03-11T02:39:36.286Z,95.60
2019-03-11T02:40:11.919Z,95.60
2019-03-11T02:40:47.582Z,95.60
2019-03-11T02:41:23.422Z,95.60
2019-03-11T02:41:59.334Z,95.70
2019-03-11T02:42:34.878Z,95.70
2019-03-11T02:43:10.416Z,95.70
2019-03-11T02:43:46.218Z,95.70
2019-03-11T02:44:21.770Z,95.60
2019-03-11T02:44:57.643Z,95.60
2019-03-11T02:45:33.215Z,95.70
2019-03-11T02:46:08.792Z,95.70
2019-03-11T02:46:44.327Z,95.60
2019-03-11T02:47:20.192Z,95.70
2019-03-11T02:47:56.130Z,95.80
2019-03-11T02:48:31.666Z,95.80
2019-03-11T02:49:07.223Z,95.80
2019-03-11T02:49:44.081Z,95.80
2019-03-11T02:50:19.860Z,96.10
2019-03-11T02:50:55.395Z,95.80
2019-03-11T02:51:31.276Z,95.80
2019-03-11T02:52:06.832Z,96.20
2019-03-11T02:52:42.390Z,95.90
2019-03-11T02:53:17.997Z,95.90
2019-03-11T02:53:53.816Z,95.90
2019-03-11T02:54:29.391Z,95.90
2019-03-11T02:55:05.117Z,95.90
2019-03-11T02:55:40.657Z,95.90
2019-03-11T02:56:16.200Z,95.90
2019-03-11T02:56:52.009Z,96.00
2019-03-11T02:57:27.561Z,96.00
2019-03-11T02:58:03.114Z,95.90
2019-03-11T02:58:38.655Z,95.90
2019-03-11T02:59:14.230Z,95.90
2019-03-11T02:59:50.149Z,95.90
2019-03-11T03:00:25.762Z,95.90
2019-03-11T03:01:35.570Z,95.90
2019-03-11T03:02:33.345Z,95.90
2019-03-11T03:03:26.655Z,95.90
2019-03-11T03:04:12.642Z,95.90
2019-03-11T03:04:55.091Z,96.00
2019-03-11T03:05:38.360Z,96.00
2019-03-11T03:06:16.384Z,95.90
2019-03-11T03:06:52.252Z,95.90
2019-03-11T03:07:27.806Z,95.70
2019-03-11T03:08:03.357Z,95.70
2019-03-11T03:08:38.891Z,95.60
2019-03-11T03:09:14.842Z,95.60
2019-03-11T03:09:50.387Z,95.70
2019-03-11T03:10:26.301Z,95.70
2019-03-11T03:11:01.929Z,95.80
2019-03-11T03:11:37.526Z,95.80
2019-03-11T03:12:13.402Z,95.80
2019-03-11T03:12:48.941Z,95.80
2019-03-11T03:13:24.532Z,95.80
2019-03-11T03:14:00.109Z,95.80
2019-03-11T03:14:35.647Z,95.80
2019-03-11T03:15:11.187Z,95.70
2019-03-11T03:15:46.737Z,95.70
2019-03-11T03:16:22.275Z,95.70
2019-03-11T03:16:57.896Z,95.70
2019-03-11T03:17:34.440Z,95.80
2019-03-11T03:18:10.456Z,95.80
2019-03-11T03:18:45.999Z,95.90
2019-03-11T03:19:21.599Z,95.90
2019-03-11T03:19:57.467Z,95.90
2019-03-11T03:20:33.031Z,95.90
2019-03-11T03:21:08.580Z,95.90
2019-03-11T03:21:44.212Z,96.00
2019-03-11T03:22:20.096Z,96.00
2019-03-11T03:22:55.649Z,96.00
2019-03-11T03:23:31.491Z,96.10
2019-03-11T03:24:07.035Z,96.10
2019-03-11T03:24:42.570Z,96.10
2019-03-11T03:25:32.203Z,96.10
2019-03-11T03:25:55.361Z,96.00
2019-03-11T03:26:30.903Z,96.10
2019-03-11T03:27:06.459Z,96.10
2019-03-11T03:27:42.094Z,96.00
2019-03-11T03:28:17.761Z,96.00
2019-03-11T03:28:53.421Z,96.00
2019-03-11T03:29:29.242Z,95.90
2019-03-11T03:30:06.598Z,95.90
2019-03-11T03:30:42.200Z,95.80
2019-03-11T03:31:17.735Z,95.80
2019-03-11T03:31:53.279Z,95.80
2019-03-11T03:32:29.080Z,95.80
2019-03-11T03:33:04.614Z,95.80
2019-03-11T03:33:40.149Z,95.90
2019-03-11T03:34:15.704Z,95.80
2019-03-11T03:34:51.475Z,95.90
2019-03-11T03:35:27.048Z,95.90
2019-03-11T03:36:02.648Z,95.90
2019-03-11T03:36:38.189Z,96.00
2019-03-11T03:37:14.191Z,96.00
2019-03-11T03:37:49.823Z,96.00
2019-03-11T03:38:30.996Z,96.00
2019-03-11T03:39:04.206Z,96.00
2019-03-11T03:39:41.125Z,96.00
2019-03-11T03:40:16.662Z,96.00
2019-03-11T03:40:52.217Z,96.00
2019-03-11T03:41:27.927Z,96.00
2019-03-11T03:42:03.522Z,95.90
2019-03-11T03:42:39.125Z,95.90
2019-03-11T03:43:14.701Z,96.00
2019-03-11T03:43:50.248Z,96.00
2019-03-11T03:44:25.863Z,95.90
2019-03-11T03:45:21.311Z,96.00
2019-03-11T03:45:56.881Z,96.00
2019-03-11T03:46:32.443Z,96.00
2019-03-11T03:47:08.290Z,96.10
2019-03-11T03:47:43.922Z,96.10
2019-03-11T03:48:19.519Z,96.10
2019-03-11T03:48:55.081Z,96.40
2019-03-11T03:49:31.266Z,96.10
2019-03-11T03:50:07.244Z,96.10
2019-03-11T03:50:42.785Z,96.10
2019-03-11T03:51:18.573Z,96.10
2019-03-11T03:51:54.104Z,96.10
2019-03-11T03:52:30.619Z,96.10
2019-03-11T03:53:06.212Z,96.10
2019-03-11T03:53:42.725Z,96.10
2019-03-11T03:54:19.144Z,96.10
2019-03-11T03:54:54.791Z,96.10
2019-03-11T03:55:30.340Z,96.10
2019-03-11T03:56:05.891Z,96.10
2019-03-11T03:56:42.520Z,96.10
2019-03-11T03:57:18.649Z,95.90
2019-03-11T03:57:54.285Z,96.00
2019-03-11T03:58:30.192Z,96.00
2019-03-11T03:59:05.739Z,95.90
2019-03-11T03:59:41.575Z,95.90
2019-03-11T04:00:17.121Z,95.90
2019-03-11T04:00:52.654Z,95.80
2019-03-11T04:01:28.200Z,95.80
2019-03-11T04:02:03.744Z,95.80
2019-03-11T04:02:39.338Z,95.80
2019-03-11T04:03:15.180Z,95.90
2019-03-11T04:03:51.028Z,95.90
2019-03-11T04:04:26.573Z,95.90
2019-03-11T04:05:02.129Z,95.80
2019-03-11T04:05:37.796Z,95.90
2019-03-11T04:06:13.359Z,95.90
2019-03-11T04:06:49.171Z,95.90
2019-03-11T04:07:25.021Z,95.90
2019-03-11T04:08:00.580Z,95.90
2019-03-11T04:08:36.180Z,96.00
2019-03-11T04:09:11.715Z,95.90
2019-03-11T04:09:47.263Z,95.90
2019-03-11T04:10:23.123Z,95.80
2019-03-11T04:10:58.675Z,96.00
2019-03-11T04:11:34.261Z,95.90
2019-03-11T04:12:10.135Z,95.90
2019-03-11T04:12:45.707Z,96.00
2019-03-11T04:13:21.235Z,96.00
2019-03-11T04:13:57.749Z,96.00
2019-03-11T04:14:33.315Z,96.00
2019-03-11T04:15:09.687Z,96.00
2019-03-11T04:15:45.589Z,96.00
2019-03-11T04:16:21.424Z,96.00
2019-03-11T04:16:56.981Z,96.00
2019-03-11T04:17:32.529Z,96.00
2019-03-11T04:18:09.547Z,96.00
2019-03-11T04:18:55.948Z,96.00
2019-03-11T04:19:32.442Z,96.00
2019-03-11T04:20:10.269Z,95.90
2019-03-11T04:20:46.267Z,95.90
2019-03-11T04:21:21.917Z,95.90
2019-03-11T04:21:57.478Z,95.90
2019-03-11T04:22:33.346Z,95.80
2019-03-11T04:23:08.989Z,95.90
2019-03-11T04:23:44.556Z,95.80
2019-03-11T04:24:20.110Z,95.80
2019-03-11T04:24:56.195Z,95.80
2019-03-11T04:25:32.128Z,95.80
2019-03-11T04:26:07.968Z,95.80
2019-03-11T04:26:43.783Z,95.70
2019-03-11T04:27:19.325Z,95.70
2019-03-11T04:27:55.002Z,95.70
2019-03-11T04:28:30.919Z,95.50
2019-03-11T04:29:06.468Z,95.50
2019-03-11T04:29:42.033Z,95.50
2019-03-11T04:30:21.907Z,95.50
2019-03-11T04:30:57.458Z,95.50
2019-03-11T04:31:33.292Z,95.40
2019-03-11T04:32:08.938Z,95.40
2019-03-11T04:32:44.471Z,95.30
2019-03-11T04:33:20.029Z,95.20
2019-03-11T04:33:55.603Z,95.20
2019-03-11T04:34:31.143Z,95.20
2019-03-11T04:35:07.640Z,95.20
2019-03-11T04:35:43.199Z,95.20
2019-03-11T04:36:18.773Z,95.20
2019-03-11T04:36:54.323Z,95.10
2019-03-11T04:37:30.167Z,95.20
2019-03-11T04:38:06.786Z,95.20
2019-03-11T04:38:42.336Z,95.10
2019-03-11T04:39:17.875Z,95.20
2019-03-11T04:39:53.414Z,95.20
2019-03-11T04:40:28.958Z,95.10
2019-03-11T04:41:05.542Z,95.00
2019-03-11T04:41:42.359Z,95.20
2019-03-11T04:42:17.927Z,95.00
2019-03-11T04:42:53.486Z,95.00
2019-03-11T04:43:29.907Z,95.00
2019-03-11T04:44:06.753Z,95.10
2019-03-11T04:44:42.627Z,95.10
2019-03-11T04:45:18.200Z,95.10
2019-03-11T04:45:53.734Z,95.10
2019-03-11T04:46:29.730Z,95.20
2019-03-11T04:47:05.276Z,95.10
2019-03-11T04:47:40.850Z,95.10
2019-03-11T04:48:16.747Z,95.10
2019-03-11T04:48:52.558Z,95.00
2019-03-11T04:49:28.101Z,95.10
2019-03-11T04:50:03.803Z,95.10
2019-03-11T04:50:39.367Z,95.50
2019-03-11T04:51:14.911Z,95.10
2019-03-11T04:51:50.452Z,95.20
2019-03-11T04:52:26.465Z,95.10
2019-03-11T04:53:02.024Z,95.20
2019-03-11T04:53:37.610Z,95.30
2019-03-11T04:54:14.238Z,95.20
2019-03-11T04:54:49.780Z,95.20
2019-03-11T04:55:25.315Z,95.20
2019-03-11T04:56:01.227Z,95.40
2019-03-11T04:56:36.795Z,95.50
2019-03-11T04:57:12.411Z,95.60
2019-03-11T04:57:52.700Z,95.60
2019-03-11T04:58:28.582Z,95.70
2019-03-11T04:59:11.744Z,95.80
2019-03-11T04:59:47.543Z,95.80
2019-03-11T05:00:25.170Z,95.80
2019-03-11T05:01:00.718Z,95.90
2019-03-11T05:01:36.334Z,95.90
2019-03-11T05:02:11.876Z,96.00
2019-03-11T05:02:47.468Z,96.10
2019-03-11T05:03:23.082Z,96.10
2019-03-11T05:03:58.654Z,96.10
2019-03-11T05:04:34.192Z,95.90
2019-03-11T05:05:10.084Z,96.00
2019-03-11T05:05:45.644Z,96.00
2019-03-11T05:06:21.258Z,96.00
2019-03-11T05:06:56.810Z,96.00
2019-03-11T05:07:33.327Z,96.10
2019-03-11T05:08:08.867Z,96.10
2019-03-11T05:08:44.722Z,96.10
2019-03-11T05:09:20.282Z,96.20
2019-03-11T05:09:55.839Z,96.20
2019-03-11T05:10:31.385Z,96.20
2019-03-11T05:11:08.006Z,96.20
2019-03-11T05:11:43.539Z,96.20
2019-03-11T05:12:19.083Z,96.30
2019-03-11T05:12:54.614Z,96.30
2019-03-11T05:13:30.170Z,96.40
2019-03-11T05:14:06.030Z,96.30
2019-03-11T05:14:41.677Z,96.30
2019-03-11T05:15:17.251Z,96.40
2019-03-11T05:15:52.815Z,96.40
2019-03-11T05:16:28.362Z,96.30
2019-03-11T05:17:03.903Z,96.30
2019-03-11T05:17:39.443Z,96.30
2019-03-11T05:18:16.054Z,96.30
2019-03-11T05:18:51.848Z,96.30
2019-03-11T05:19:27.393Z,96.30
2019-03-11T05:20:03.112Z,96.40
2019-03-11T05:20:38.674Z,96.40
2019-03-11T05:21:14.212Z,96.40
2019-03-11T05:21:49.763Z,96.30
2019-03-11T05:22:25.662Z,96.40
2019-03-11T05:23:01.234Z,96.30
2019-03-11T05:23:36.888Z,96.30
2019-03-11T05:24:12.692Z,96.20
2019-03-11T05:24:48.340Z,96.10
2019-03-11T05:25:23.921Z,96.10
2019-03-11T05:25:59.463Z,96.00
2019-03-11T05:26:35.006Z,95.90
2019-03-11T05:27:10.875Z,95.80
2019-03-11T05:27:46.418Z,95.80
2019-03-11T05:28:22.231Z,95.80
2019-03-11T05:28:57.759Z,95.80
2019-03-11T05:29:33.300Z,95.80
2019-03-11T05:30:11.671Z,95.80
2019-03-11T05:30:47.294Z,95.80
2019-03-11T05:31:22.834Z,95.80
2019-03-11T05:31:58.390Z,95.80
2019-03-11T05:32:33.947Z,95.70
2019-03-11T05:33:09.768Z,95.80
2019-03-11T05:33:45.311Z,95.80
2019-03-11T05:34:20.856Z,95.80
2019-03-11T05:34:56.431Z,95.80
2019-03-11T05:35:32.135Z,95.80
2019-03-11T05:36:07.686Z,95.80
2019-03-11T05:36:43.599Z,95.80
2019-03-11T05:37:19.412Z,95.80
2019-03-11T05:37:54.964Z,95.80
2019-03-11T05:38:30.544Z,95.80
2019-03-11T05:39:07.758Z,95.60
2019-03-11T05:39:43.302Z,95.60
2019-03-11T05:40:18.885Z,95.70
2019-03-11T05:40:54.444Z,95.70
2019-03-11T05:41:30.191Z,95.70
2019-03-11T05:42:05.743Z,95.70
2019-03-11T05:42:41.291Z,95.80
2019-03-11T05:43:16.866Z,95.70
2019-03-11T05:43:52.761Z,95.70
2019-03-11T05:44:28.302Z,95.70
2019-03-11T05:45:03.875Z,95.70
2019-03-11T05:45:39.445Z,95.70
2019-03-11T05:46:14.987Z,95.70
2019-03-11T05:46:50.575Z,95.70
2019-03-11T05:47:26.115Z,95.60
2019-03-11T05:48:01.654Z,95.70
2019-03-11T05:48:37.490Z,95.60
2019-03-11T05:49:13.043Z,95.60
2019-03-11T05:49:48.947Z,95.60
2019-03-11T05:50:24.967Z,95.50
2019-03-11T05:51:00.519Z,95.40
2019-03-11T05:51:36.066Z,95.50
2019-03-11T05:52:11.677Z,95.40
2019-03-11T05:52:47.222Z,95.40
2019-03-11T05:53:22.762Z,95.40
2019-03-11T05:53:58.303Z,95.40
2019-03-11T05:54:33.935Z,95.40
2019-03-11T05:55:09.570Z,95.30
2019-03-11T05:55:45.155Z,95.40
2019-03-11T05:56:21.109Z,95.40
2019-03-11T05:56:58.980Z,95.30
2019-03-11T05:57:33.889Z,95.30
2019-03-11T05:58:09.445Z,95.10
2019-03-11T05:58:45.001Z,95.20
2019-03-11T05:59:20.547Z,95.20
2019-03-11T05:59:56.454Z,95.30
2019-03-11T06:00:32.171Z,95.30
2019-03-11T06:01:07.787Z,95.10
2019-03-11T06:01:43.850Z,95.10
2019-03-11T06:02:19.423Z,95.00
2019-03-11T06:02:54.960Z,95.10
2019-03-11T06:03:30.502Z,95.10
2019-03-11T06:04:06.603Z,95.20
2019-03-11T06:04:42.143Z,95.20
2019-03-11T06:05:18.659Z,95.30
2019-03-11T06:05:54.288Z,95.70
2019-03-11T06:06:30.215Z,95.40
2019-03-11T06:07:06.024Z,95.50
2019-03-11T06:07:42.691Z,95.50
2019-03-11T06:08:21.235Z,95.60
2019-03-11T06:08:57.218Z,95.70
2019-03-11T06:09:32.818Z,95.80
2019-03-11T06:10:09.203Z,95.90
2019-03-11T06:10:44.822Z,95.90
2019-03-11T06:11:21.106Z,96.00
2019-03-11T06:11:56.921Z,96.10
2019-03-11T06:12:32.490Z,96.00
2019-03-11T06:13:08.431Z,96.00
2019-03-11T06:13:44.066Z,96.10
2019-03-11T06:14:19.631Z,96.10
2019-03-11T06:14:55.242Z,96.10
2019-03-11T06:15:30.800Z,96.20
2019-03-11T06:16:06.618Z,96.30
2019-03-11T06:16:42.251Z,96.40
2019-03-11T06:17:17.964Z,96.40
2019-03-11T06:17:53.692Z,96.40
2019-03-11T06:18:54.763Z,96.40
2019-03-11T06:19:30.382Z,96.30
2019-03-11T06:20:32.456Z,96.40
2019-03-11T06:21:18.333Z,96.50
2019-03-11T06:21:58.929Z,96.50
2019-03-11T06:22:35.122Z,96.50
2019-03-11T06:23:11.375Z,96.60
2019-03-11T06:23:46.926Z,96.60
2019-03-11T06:24:22.462Z,96.60
2019-03-11T06:24:58.020Z,96.70
2019-03-11T06:25:33.875Z,96.70
2019-03-11T06:26:09.421Z,96.80
2019-03-11T06:26:45.015Z,97.10
2019-03-11T06:27:20.550Z,96.80
2019-03-11T06:27:56.094Z,96.80
2019-03-11T06:28:31.650Z,96.80
2019-03-11T06:29:07.198Z,96.80
2019-03-11T06:29:42.755Z,96.90
2019-03-11T06:30:18.577Z,96.90
2019-03-11T06:30:54.126Z,97.00
2019-03-11T06:31:29.947Z,97.10
2019-03-11T06:32:06.723Z,97.20
2019-03-11T06:32:42.283Z,97.20
2019-03-11T06:33:17.807Z,97.20
2019-03-11T06:33:53.348Z,97.20
2019-03-11T06:34:29.141Z,97.40
2019-03-11T06:35:04.713Z,97.40
2019-03-11T06:35:40.678Z,97.40
2019-03-11T06:36:17.334Z,97.50
2019-03-11T06:36:52.891Z,97.60
2019-03-11T06:37:28.435Z,97.70
2019-03-11T06:38:04.003Z,97.80
2019-03-11T06:38:39.591Z,98.20
2019-03-11T06:39:15.463Z,97.90
2019-03-11T06:39:51.259Z,98.00
2019-03-11T06:40:27.116Z,98.00
2019-03-11T06:41:02.679Z,98.20
2019-03-11T06:41:38.543Z,98.20
2019-03-11T06:42:14.107Z,98.20
2019-03-11T06:42:49.667Z,98.30
2019-03-11T06:43:25.581Z,98.30
2019-03-11T06:44:01.153Z,98.50
2019-03-11T06:44:36.735Z,98.50
2019-03-11T06:45:12.551Z,98.50
2019-03-11T06:45:48.088Z,98.50
2019-03-11T06:46:23.704Z,98.50
2019-03-11T06:46:59.542Z,98.60
2019-03-11T06:47:35.099Z,98.50
2019-03-11T06:48:10.911Z,98.60
2019-03-11T06:48:46.443Z,98.70
2019-03-11T06:49:27.807Z,98.70
2019-03-11T06:50:03.406Z,98.70
2019-03-11T06:50:38.957Z,98.90
2019-03-11T06:51:14.491Z,98.90
2019-03-11T06:51:50.030Z,98.90
2019-03-11T06:52:25.827Z,99.00
2019-03-11T06:53:01.628Z,99.30
2019-03-11T06:53:37.182Z,99.00
2019-03-11T06:54:12.761Z,99.00
2019-03-11T06:54:48.311Z,99.00
2019-03-11T06:55:23.849Z,99.00
2019-03-11T06:55:59.645Z,99.30
2019-03-11T06:56:35.172Z,99.00
2019-03-11T06:57:12.689Z,99.00
2019-03-11T06:57:48.268Z,99.00
2019-03-11T06:58:23.823Z,99.10
2019-03-11T06:59:00.043Z,99.00
2019-03-11T06:59:36.842Z,99.00
2019-03-11T07:00:13.618Z,99.10
2019-03-11T07:00:49.155Z,99.10
2019-03-11T07:01:24.698Z,99.20
2019-03-11T07:02:00.239Z,99.10
2019-03-11T07:02:35.783Z,99.20
2019-03-11T07:03:11.623Z,99.20
2019-03-11T07:03:47.460Z,99.50
2019-03-11T07:04:23.003Z,99.10
2019-03-11T07:04:58.617Z,99.20
2019-03-11T07:05:34.296Z,99.20
2019-03-11T07:06:09.826Z,99.30
2019-03-11T07:06:46.682Z,99.20
2019-03-11T07:07:22.526Z,99.20
2019-03-11T07:07:58.321Z,99.20
2019-03-11T07:08:33.858Z,99.10
2019-03-11T07:09:09.421Z,99.10
2019-03-11T07:09:45.367Z,99.10
2019-03-11T07:10:21.212Z,99.20
2019-03-11T07:10:56.776Z,99.20
2019-03-11T07:11:32.367Z,99.20
2019-03-11T07:12:08.221Z,99.30
2019-03-11T07:12:43.787Z,99.30
2019-03-11T07:13:19.694Z,99.20
2019-03-11T07:13:55.226Z,99.10
2019-03-11T07:14:31.739Z,99.10
2019-03-11T07:15:08.195Z,99.10
2019-03-11T07:15:43.978Z,99.10
2019-03-11T07:16:19.517Z,99.10
2019-03-11T07:16:55.349Z,99.20
2019-03-11T07:17:30.903Z,99.20
2019-03-11T07:18:07.039Z,99.10
2019-03-11T07:18:42.584Z,99.10
2019-03-11T07:19:19.108Z,99.10
2019-03-11T07:19:54.670Z,99.10
2019-03-11T07:20:30.302Z,99.20
2019-03-11T07:21:06.167Z,99.10
2019-03-11T07:21:42.078Z,99.10
2019-03-11T07:22:17.885Z,99.00
2019-03-11T07:22:53.442Z,98.90
2019-03-11T07:23:29.103Z,98.90
2019-03-11T07:24:04.746Z,99.00
2019-03-11T07:24:40.291Z,99.00
2019-03-11T07:25:15.852Z,99.00
2019-03-11T07:25:51.550Z,99.00
2019-03-11T07:26:27.118Z,99.00
2019-03-11T07:27:02.675Z,99.10
2019-03-11T07:27:38.223Z,99.10
2019-03-11T07:28:13.778Z,99.10
2019-03-11T07:28:49.590Z,99.10
2019-03-11T07:29:25.165Z,99.00
2019-03-11T07:30:00.746Z,98.90
2019-03-11T07:30:37.569Z,98.80
2019-03-11T07:31:13.182Z,98.70
2019-03-11T07:31:48.739Z,98.70
2019-03-11T07:32:24.359Z,98.70
2019-03-11T07:32:59.929Z,98.70
2019-03-11T07:33:35.475Z,98.60
2019-03-11T07:34:11.100Z,98.50
2019-03-11T07:34:46.674Z,98.50
2019-03-11T07:35:23.199Z,98.50
2019-03-11T07:35:58.754Z,98.40
2019-03-11T07:36:34.316Z,98.40
2019-03-11T07:37:09.959Z,98.30
2019-03-11T07:37:45.624Z,98.40
2019-03-11T07:38:22.755Z,98.40
2019-03-11T07:38:58.565Z,98.40
2019-03-11T07:39:34.123Z,98.40
2019-03-11T07:40:09.683Z,98.40
2019-03-11T07:40:45.278Z,98.30
2019-03-11T07:41:20.822Z,98.40
2019-03-11T07:41:56.368Z,98.40
2019-03-11T07:42:32.159Z,98.40
2019-03-11T07:43:07.690Z,98.50
2019-03-11T07:43:43.241Z,98.60
2019-03-11T07:44:18.787Z,98.60